Time;durP1;ratioP1;P1;durP2;ratioP2;P2;SDS_P1;SDS_P2;PMS_P1;PMS_P2;Temp;Humidity;BMP_temperature;BMP_pressure;BME280_temperature;BME280_humidity;BME280_pressure;Samples;Min_cycle;Max_cycle;Signal;HPM_P1;HPM_P2
2023/05/12 00:00:06;;;;;;;2.05;1.55;;;;;;;9.75;53.21;99758.16;4946242;28;20023;-90
2023/05/12 00:02:35;;;;;;;1.58;1.25;;;;;;;9.74;53.02;99775.38;4962433;28;20089;-90
2023/05/12 00:05:06;;;;;;;3.80;1.50;;;;;;;9.79;53.17;99790.75;4907462;29;20111;-90
2023/05/12 00:07:33;;;;;;;2.88;1.58;;;;;;;9.73;52.78;99770.25;4923094;29;20043;-91
2023/05/12 00:10:03;;;;;;;2.38;1.67;;;;;;;9.58;53.48;99768.19;4921450;29;20123;-89
2023/05/12 00:12:32;;;;;;;3.70;1.40;;;;;;;9.66;53.83;99795.44;4922947;29;20111;-91
2023/05/12 00:14:57;;;;;;;2.88;1.50;;;;;;;9.48;53.35;99766.19;4907401;29;20032;-90
2023/05/12 00:17:26;;;;;;;3.40;1.45;;;;;;;9.49;53.48;99784.78;4906270;29;20035;-92
2023/05/12 00:19:55;;;;;;;2.33;1.63;;;;;;;9.48;53.83;99779.63;4921376;29;20051;-92
2023/05/12 00:22:25;;;;;;;2.83;1.40;;;;;;;9.65;53.74;99804.59;4922495;29;20466;-91
2023/05/12 00:24:51;;;;;;;2.97;1.55;;;;;;;9.54;54.30;99800.16;4906782;29;20131;-90
2023/05/12 00:27:19;;;;;;;2.08;1.52;;;;;;;9.49;53.73;99789.34;4906153;29;20090;-90
2023/05/12 00:29:46;;;;;;;3.30;1.60;;;;;;;9.69;53.74;99792.28;4920747;29;20118;-91
2023/05/12 00:32:11;;;;;;;2.25;1.45;;;;;;;9.54;52.88;99767.88;4905759;29;20059;-92
2023/05/12 00:34:43;;;;;;;2.50;1.55;;;;;;;9.40;53.97;99772.84;4905573;29;20023;-90
2023/05/12 00:37:09;;;;;;;3.20;1.55;;;;;;;9.31;53.60;99752.84;4937930;29;20175;-91
2023/05/12 00:39:36;;;;;;;2.70;1.50;;;;;;;9.43;53.78;99774.22;4918552;29;20036;-89
2023/05/12 00:42:04;;;;;;;2.22;1.40;;;;;;;9.38;53.95;99787.59;4904805;29;20143;-91
2023/05/12 00:44:30;;;;;;;5.22;1.92;;;;;;;9.42;54.13;99786.84;4921281;29;20063;-91
2023/05/12 00:46:56;;;;;;;2.83;1.75;;;;;;;9.21;55.47;99772.31;4905526;29;20079;-91
2023/05/12 00:49:21;;;;;;;1.80;1.30;;;;;;;9.29;55.56;99792.59;4904586;29;20055;-91
2023/05/12 00:51:47;;;;;;;2.10;1.38;;;;;;;9.36;54.59;99789.72;4905621;29;20069;-90
2023/05/12 00:54:13;;;;;;;3.53;1.52;;;;;;;9.36;54.89;99782.47;4922920;28;20035;-91
2023/05/12 00:56:39;;;;;;;2.95;1.70;;;;;;;9.29;56.38;99788.00;4976275;28;20031;-90
2023/05/12 00:59:06;;;;;;;3.17;1.77;;;;;;;9.40;56.29;99797.03;4944684;28;20460;-91
2023/05/12 01:01:33;;;;;;;1.75;1.50;;;;;;;9.36;55.78;99785.16;4945831;28;20030;-91
2023/05/12 01:03:59;;;;;;;2.80;1.75;;;;;;;9.22;56.20;99787.41;4977275;28;20022;-90
2023/05/12 01:06:53;;;;;;;3.15;1.60;;;;;;;9.30;55.84;99794.22;4944673;28;20037;-91
2023/05/12 01:09:20;;;;;;;2.58;1.60;;;;;;;9.18;55.50;99772.84;4956631;28;20034;-91
2023/05/12 01:11:47;;;;;;;3.70;1.42;;;;;;;9.20;56.05;99802.97;4976496;28;20110;-90
2023/05/12 01:14:13;;;;;;;1.77;1.48;;;;;;;9.07;55.73;99777.28;4976379;28;20034;-90
2023/05/12 01:16:43;;;;;;;2.20;1.45;;;;;;;9.04;55.44;99766.22;4976161;28;20031;-90
2023/05/12 01:19:13;;;;;;;3.03;1.73;;;;;;;9.09;54.86;99771.66;4944378;28;20042;-90
2023/05/12 01:21:40;;;;;;;4.22;1.40;;;;;;;9.10;54.86;99760.66;4959771;28;20023;-91
2023/05/12 01:24:06;;;;;;;1.90;1.38;;;;;;;9.11;55.01;99772.22;4960872;28;20045;-90
2023/05/12 01:26:32;;;;;;;2.78;1.65;;;;;;;8.99;55.20;99760.78;4945617;28;20137;-90
2023/05/12 01:28:57;;;;;;;2.80;1.63;;;;;;;9.09;55.25;99766.28;4944146;28;20027;-91
2023/05/12 01:31:23;;;;;;;2.25;1.65;;;;;;;9.07;54.96;99771.91;4943240;28;20029;-91
2023/05/12 01:33:48;;;;;;;1.83;1.60;;;;;;;9.16;54.94;99772.28;4943483;28;20039;-91
2023/05/12 01:36:14;;;;;;;4.38;1.80;;;;;;;9.26;54.71;99776.97;4944168;28;20031;-91
2023/05/12 01:38:39;;;;;;;3.22;2.08;;;;;;;9.17;55.10;99765.03;4943284;28;20081;-92
2023/05/12 01:41:05;;;;;;;3.58;1.60;;;;;;;9.14;56.21;99774.41;4945385;28;20477;-92
2023/05/12 01:43:31;;;;;;;2.55;1.50;;;;;;;9.37;55.60;99794.03;4962832;28;20109;-92
2023/05/12 01:45:59;;;;;;;1.90;1.50;;;;;;;9.10;56.09;99770.59;4963673;28;20103;-91
2023/05/12 01:48:24;;;;;;;4.82;2.00;;;;;;;9.07;56.38;99774.59;4964335;28;20468;-90
2023/05/12 01:50:53;;;;;;;2.28;1.77;;;;;;;8.97;56.14;99766.38;4962051;28;20054;-91
2023/05/12 01:53:20;;;;;;;2.80;1.40;;;;;;;8.85;56.63;99760.31;4963030;28;20482;-90
2023/05/12 01:55:46;;;;;;;4.85;1.60;;;;;;;8.94;56.09;99760.69;4947250;28;20484;-90
2023/05/12 01:58:13;;;;;;;4.20;1.90;;;;;;;9.10;56.21;99790.19;4977907;28;20049;-90
2023/05/12 02:00:39;;;;;;;3.05;1.85;;;;;;;8.98;56.52;99769.88;4962050;28;20026;-92
2023/05/12 02:03:05;;;;;;;2.42;1.58;;;;;;;9.02;56.42;99766.44;4962514;28;20031;-92
2023/05/12 02:05:31;;;;;;;4.18;1.52;;;;;;;9.16;56.18;99782.22;4963228;28;20046;-91
2023/05/12 02:07:59;;;;;;;2.50;1.67;;;;;;;9.06;55.87;99772.94;4962406;28;20033;-92
2023/05/12 02:10:24;;;;;;;3.33;1.67;;;;;;;8.97;56.30;99760.22;4978246;28;20400;-91
2023/05/12 02:12:52;;;;;;;2.63;1.98;;;;;;;8.88;56.18;99749.06;4946274;28;20026;-91
2023/05/12 02:15:18;;;;;;;4.30;1.85;;;;;;;8.89;57.15;99769.50;4978360;28;20034;-91
2023/05/12 02:17:44;;;;;;;6.88;1.80;;;;;;;8.77;57.65;99766.09;4946400;28;20037;-91
2023/05/12 02:20:11;;;;;;;2.38;1.80;;;;;;;8.72;57.78;99766.03;4945882;28;20026;-90
2023/05/12 02:22:36;;;;;;;4.65;2.13;;;;;;;8.56;58.59;99762.31;4947224;28;20026;-89
2023/05/12 02:25:05;;;;;;;3.13;1.75;;;;;;;8.78;57.70;99770.41;4978866;28;20504;-90
2023/05/12 02:27:31;;;;;;;3.08;1.77;;;;;;;8.92;57.25;99779.72;4947011;28;20030;-91
2023/05/12 02:29:58;;;;;;;4.43;1.80;;;;;;;9.00;57.13;99787.38;4979583;28;20463;-89
2023/05/12 02:32:28;;;;;;;2.47;1.90;;;;;;;9.01;56.81;99780.16;4962089;28;20030;-90
2023/05/12 02:34:55;;;;;;;2.88;2.00;;;;;;;8.95;56.87;99767.72;4979528;28;20126;-90
2023/05/12 02:37:23;;;;;;;3.88;1.80;;;;;;;8.98;56.73;99770.69;4978817;28;20036;-91
2023/05/12 02:39:52;;;;;;;4.50;1.85;;;;;;;9.07;56.61;99782.66;4994954;28;20438;-90
2023/05/12 02:42:19;;;;;;;2.97;1.95;;;;;;;8.93;57.00;99762.56;4974197;28;20050;-90
2023/05/12 02:44:46;;;;;;;2.13;1.73;;;;;;;8.94;56.98;99758.00;4959019;28;20034;-90
2023/05/12 02:47:13;;;;;;;2.72;1.80;;;;;;;9.08;57.00;99789.63;4959130;28;20038;-90
2023/05/12 02:49:42;;;;;;;2.95;1.75;;;;;;;8.98;56.98;99772.56;4943500;28;20038;-90
2023/05/12 02:52:07;;;;;;;2.20;1.60;;;;;;;8.92;56.62;99771.69;4941309;28;20039;-90
2023/05/12 02:54:35;;;;;;;2.47;1.75;;;;;;;8.99;57.21;99780.38;4940396;28;20485;-90
2023/05/12 02:57:10;;;;;;;2.78;1.80;;;;;;;8.96;56.90;99766.63;4975208;28;20081;-89
2023/05/12 02:59:36;;;;;;;2.58;2.03;;;;;;;8.81;57.30;99756.50;4975977;28;20055;-90
2023/05/12 03:02:06;;;;;;;2.20;1.60;;;;;;;8.95;57.07;99773.88;4974612;28;20062;-91
2023/05/12 03:04:35;;;;;;;2.88;1.85;;;;;;;8.96;57.13;99785.44;4981003;28;20150;-91
2023/05/12 03:07:02;;;;;;;2.72;1.75;;;;;;;9.00;56.75;99791.94;4978971;28;20047;-91
2023/05/12 03:09:29;;;;;;;3.65;2.50;;;;;;;8.98;56.97;99802.09;4958342;28;20046;-91
2023/05/12 03:11:55;;;;;;;3.08;1.80;;;;;;;8.85;57.28;99782.59;4977109;28;20039;-90
2023/05/12 03:14:21;;;;;;;4.15;1.58;;;;;;;8.94;56.63;99790.22;4950856;28;20043;-91
2023/05/12 03:16:47;;;;;;;4.05;1.92;;;;;;;8.99;57.26;99809.13;4973737;28;20046;-91
2023/05/12 03:19:13;;;;;;;4.97;1.73;;;;;;;8.82;57.43;99785.78;4980002;28;20041;-90
2023/05/12 03:21:39;;;;;;;5.18;1.67;;;;;;;8.95;57.21;99806.09;4952772;28;20102;-90
2023/05/12 03:24:05;;;;;;;3.88;1.80;;;;;;;8.90;57.30;99801.47;4986059;28;20031;-90
2023/05/12 03:26:31;;;;;;;2.97;1.83;;;;;;;8.88;57.35;99800.91;4977390;28;20042;-92
2023/05/12 03:28:56;;;;;;;2.78;2.00;;;;;;;9.02;57.22;99820.16;4963767;28;20034;-91
2023/05/12 03:31:22;;;;;;;3.33;3.03;;;;;;;8.96;57.24;99805.03;4960475;28;20031;-91
2023/05/12 03:33:48;;;;;;;3.08;1.88;;;;;;;9.06;57.14;99821.28;4976956;28;20033;-92
2023/05/12 03:36:14;;;;;;;3.47;2.00;;;;;;;8.99;57.06;99806.44;4982517;28;20026;-91
2023/05/12 03:38:40;;;;;;;3.42;1.98;;;;;;;8.96;56.76;99805.03;4982754;28;20038;-93
2023/05/12 03:41:05;;;;;;;4.25;2.20;;;;;;;9.15;56.76;99813.66;4965413;28;20042;-94
2023/05/12 03:43:31;;;;;;;2.95;1.90;;;;;;;9.22;56.43;99819.66;4966491;28;20053;-93
2023/05/12 03:45:57;;;;;;;3.58;2.25;;;;;;;9.15;56.34;99813.66;4964882;28;20100;-92
2023/05/12 03:48:22;;;;;;;4.00;2.47;;;;;;;9.21;57.69;99825.25;4964411;28;20041;-92
2023/05/12 03:50:48;;;;;;;5.30;2.40;;;;;;;8.84;58.43;99791.72;4964431;28;20037;-94
2023/05/12 03:53:13;;;;;;;6.80;3.95;;;;;;;8.93;58.22;99810.91;4966732;28;20423;-94
2023/05/12 03:55:40;;;;;;;3.40;2.60;;;;;;;9.29;57.41;99846.31;4980748;28;20084;-92
2023/05/12 03:58:05;;;;;;;6.10;2.05;;;;;;;9.08;56.82;99818.38;4963126;28;20026;-93
2023/05/12 04:00:31;;;;;;;2.97;2.10;;;;;;;9.30;55.57;99824.59;4966818;28;20022;-91
2023/05/12 04:02:57;;;;;;;3.78;2.10;;;;;;;9.43;55.28;99823.41;4972896;28;20022;-91
2023/05/12 04:05:23;;;;;;;5.13;1.88;;;;;;;9.47;54.61;99807.59;4987530;28;20034;-91
2023/05/12 04:07:51;;;;;;;3.20;2.10;;;;;;;9.56;54.84;99824.09;4988685;28;20037;-90
2023/05/12 04:10:17;;;;;;;5.97;2.50;;;;;;;9.47;55.51;99831.78;4971123;28;20061;-91
2023/05/12 04:12:42;;;;;;;5.55;2.65;;;;;;;9.38;57.37;99830.59;4984536;28;20025;-90
2023/05/12 04:15:54;;;;;;;6.00;2.08;;;;;;;9.62;56.88;99855.34;5002106;28;20048;-90
2023/05/12 04:18:19;;;;;;;6.63;2.35;;;;;;;9.51;56.54;99836.41;5008318;28;20089;-92
2023/05/12 04:20:45;;;;;;;3.92;2.25;;;;;;;9.55;56.04;99846.69;4991849;28;20045;-92
2023/05/12 04:23:10;;;;;;;3.95;2.65;;;;;;;9.61;55.47;99829.56;4970623;28;20026;-93
2023/05/12 04:25:39;;;;;;;2.92;2.05;;;;;;;9.93;54.56;99859.22;4969958;28;20527;-91
2023/05/12 04:28:05;;;;;;;3.70;1.83;;;;;;;10.03;54.32;99851.25;4979495;28;20044;-92
2023/05/12 04:30:31;;;;;;;4.80;2.22;;;;;;;10.09;54.95;99866.38;4993919;28;20032;-91
2023/05/12 04:32:58;;;;;;;6.65;2.60;;;;;;;9.96;54.96;99844.44;4987960;28;20440;-92
2023/05/12 04:35:27;;;;;;;5.70;3.00;;;;;;;9.96;55.17;99836.38;4983493;28;20033;-93
2023/05/12 04:37:53;;;;;;;4.60;2.58;;;;;;;10.05;55.34;99834.88;4984336;28;20038;-93
2023/05/12 04:40:18;;;;;;;3.85;2.25;;;;;;;10.09;54.87;99825.22;4967777;28;20087;-92
2023/05/12 04:42:44;;;;;;;4.18;2.10;;;;;;;10.43;54.22;99850.06;4962618;28;20069;-90
2023/05/12 04:45:09;;;;;;;5.32;2.70;;;;;;;10.48;53.94;99852.81;4963529;28;20020;-92
2023/05/12 04:47:35;;;;;;;4.55;2.17;;;;;;;10.55;53.77;99857.97;4978934;28;20022;-92
2023/05/12 04:50:00;;;;;;;4.75;2.35;;;;;;;10.53;53.93;99849.34;4962513;28;20042;-94
2023/05/12 04:52:29;;;;;;;7.18;2.72;;;;;;;10.46;54.08;99835.28;4962917;28;20068;-92
2023/05/12 04:54:55;;;;;;;5.97;2.83;;;;;;;10.60;54.39;99860.69;4964107;28;20022;-92
2023/05/12 04:57:20;;;;;;;5.90;2.60;;;;;;;10.61;54.76;99867.72;4998055;28;20038;-93
2023/05/12 04:59:46;;;;;;;8.93;3.92;;;;;;;10.64;54.05;99859.13;4963448;28;20562;-93
2023/05/12 05:02:12;;;;;;;6.38;2.80;;;;;;;10.82;53.92;99867.91;4979559;28;20033;-93
2023/05/12 05:04:38;;;;;;;8.15;4.57;;;;;;;10.99;53.65;99868.53;4995564;28;20026;-92
2023/05/12 05:07:09;;;;;;;7.68;4.22;;;;;;;10.84;54.02;99860.38;4985437;28;20030;-95
2023/05/12 05:09:34;;;;;;;5.65;3.30;;;;;;;10.71;54.44;99843.56;4958434;28;20074;-90
2023/05/12 05:12:00;;;;;;;9.10;3.13;;;;;;;10.79;54.96;99861.16;4978475;28;20034;-94
2023/05/12 05:14:30;;;;;;;4.15;3.10;;;;;;;11.07;54.80;99894.22;4981321;28;20065;-94
2023/05/12 05:16:59;;;;;;;3.90;2.30;;;;;;;11.17;54.11;99874.59;4967925;28;20473;-94
2023/05/12 05:19:25;;;;;;;2.70;2.33;;;;;;;11.13;54.38;99861.63;4968317;28;20101;-93
2023/05/12 05:21:56;;;;;;;7.53;3.25;;;;;;;10.95;54.95;99851.28;4954675;28;20440;-91
2023/05/12 05:24:24;;;;;;;13.70;3.25;;;;;;;11.03;54.68;99866.97;4945744;28;20070;-91
2023/05/12 05:26:50;;;;;;;4.10;2.40;;;;;;;11.03;55.22;99866.97;4945522;28;20027;-91
2023/05/12 05:29:25;;;;;;;4.35;2.70;;;;;;;11.01;55.38;99881.78;4977044;28;20398;-91
2023/05/12 05:32:01;;;;;;;4.65;3.00;;;;;;;10.85;56.00;99870.88;4978826;28;20015;-95
2023/05/12 05:34:46;;;;;;;6.18;3.22;;;;;;;10.86;56.01;99863.63;4981900;28;20127;-95
2023/05/12 05:37:20;;;;;;;4.30;2.88;;;;;;;10.95;55.78;99872.03;4978351;28;20508;-94
2023/05/12 05:39:46;;;;;;;5.28;2.88;;;;;;;11.06;55.99;99874.53;4949425;28;20050;-93
2023/05/12 05:42:12;;;;;;;5.15;3.10;;;;;;;11.09;55.80;99865.91;4946372;28;20207;-89
2023/05/12 05:44:38;;;;;;;3.85;2.47;;;;;;;11.10;55.22;99866.72;4977235;28;20018;-89
2023/05/12 05:47:03;;;;;;;7.15;3.10;;;;;;;11.26;55.68;99881.13;4948469;28;20106;-90
2023/05/12 05:49:31;;;;;;;5.53;3.22;;;;;;;11.15;54.79;99871.34;4970492;28;20031;-90
2023/05/12 05:51:56;;;;;;;6.18;2.55;;;;;;;11.29;54.27;99875.22;4953287;28;20105;-92
2023/05/12 05:54:25;;;;;;;5.70;2.70;;;;;;;11.49;53.62;99883.41;4964706;28;20035;-91
2023/05/12 05:56:53;;;;;;;3.88;2.40;;;;;;;11.40;52.69;99859.91;4950400;28;20544;-91
2023/05/12 05:59:18;;;;;;;7.07;3.08;;;;;;;11.53;52.86;99854.03;4993974;28;20457;-90
2023/05/12 06:01:46;;;;;;;4.75;2.70;;;;;;;11.83;52.69;99899.22;4978192;28;20038;-90
2023/05/12 06:04:14;;;;;;;6.13;2.45;;;;;;;11.63;52.89;99867.56;4954093;28;20027;-90
2023/05/12 06:06:40;;;;;;;7.32;4.85;;;;;;;11.61;53.75;99875.09;4978557;28;20452;-92
2023/05/12 06:09:07;;;;;;;5.10;2.80;;;;;;;11.56;53.62;99867.00;4983150;28;20019;-93
2023/05/12 06:11:33;;;;;;;6.82;3.40;;;;;;;11.74;53.87;99873.81;4949341;28;20023;-91
2023/05/12 06:13:58;;;;;;;6.18;3.10;;;;;;;12.01;53.46;99892.56;4957933;28;20027;-93
2023/05/12 06:16:24;;;;;;;4.90;3.13;;;;;;;11.82;53.10;99870.59;4968796;28;20061;-90
2023/05/12 06:18:49;;;;;;;5.38;3.75;;;;;;;11.94;53.04;99881.22;4989368;28;20026;-90
2023/05/12 06:21:28;;;;;;;4.05;2.85;;;;;;;12.01;53.02;99865.56;4986676;28;20030;-90
2023/05/12 06:24:26;;;;;;;7.40;4.03;;;;;;;12.03;53.09;99873.41;4961230;28;20109;-93
2023/05/12 06:27:01;;;;;;;5.15;3.67;;;;;;;11.95;52.51;99880.13;4964984;28;20038;-96
2023/05/12 06:29:45;;;;;;;;;;;;;;;;;;;;;
2023/05/12 06:32:36;;;;;;;;;;;;;;;;;;;;;
2023/05/12 06:35:02;;;;;;;7.00;3.17;;;;;;;12.41;51.87;99879.41;4935564;29;20158;-95
2023/05/12 06:37:31;;;;;;;15.02;9.57;;;;;;;12.65;51.89;99901.34;4926673;29;20066;-95
2023/05/12 06:39:57;;;;;;;10.18;7.22;;;;;;;12.55;51.72;99888.63;4944202;29;20043;-93
2023/05/12 06:42:33;;;;;;;4.07;2.75;;;;;;;12.40;52.12;99883.22;4949057;28;20079;-94
2023/05/12 06:45:08;;;;;;;4.30;2.90;;;;;;;12.78;51.45;99903.50;4922154;29;20478;-91
2023/05/12 06:47:41;;;;;;;3.90;2.40;;;;;;;12.81;50.98;99880.53;4892305;29;20557;-95
2023/05/12 06:50:07;;;;;;;6.07;3.08;;;;;;;12.74;51.36;99888.91;4923895;29;20047;-94
2023/05/12 06:52:33;;;;;;;5.03;3.60;;;;;;;12.96;51.15;99891.34;4911541;29;20071;-92
2023/05/12 06:55:07;;;;;;;14.30;2.95;;;;;;;13.23;50.88;99895.63;4925507;29;20043;-96
2023/05/12 06:57:33;;;;;;;5.05;2.50;;;;;;;13.09;51.06;99868.34;4910031;29;20031;-94
2023/05/12 07:00:02;;;;;;;5.47;2.92;;;;;;;13.46;50.93;99905.88;4942336;28;20506;-96
2023/05/12 07:02:50;;;;;;;4.57;2.47;;;;;;;13.29;49.92;99897.28;4964806;28;20077;-96
2023/05/12 07:05:18;;;;;;;3.80;2.65;;;;;;;13.36;50.17;99878.88;4967246;28;20520;-95
2023/05/12 07:07:44;;;;;;;7.90;3.13;;;;;;;13.60;49.22;99910.75;4960420;28;20031;-93
2023/05/12 07:10:10;;;;;;;4.60;2.97;;;;;;;13.72;49.26;99893.09;4963445;28;20095;-95
2023/05/12 07:12:39;;;;;;;2.95;2.25;;;;;;;13.85;47.85;99886.28;4979552;28;20047;-96
2023/05/12 07:15:08;;;;;;;5.03;2.72;;;;;;;13.72;48.17;99895.81;4961310;28;20058;-94
2023/05/12 07:17:52;;;;;;;5.15;2.60;;;;;;;13.78;48.07;99888.50;4959761;28;20027;-94
2023/05/12 07:20:17;;;;;;;3.65;2.47;;;;;;;13.77;47.63;99884.16;4948231;28;20090;-93
2023/05/12 07:22:43;;;;;;;6.38;3.10;;;;;;;13.87;48.45;99899.53;4965537;28;20509;-95
2023/05/12 07:25:08;;;;;;;3.08;2.58;;;;;;;13.90;46.94;99874.63;4962772;28;20038;-94
2023/05/12 07:27:34;;;;;;;7.50;3.00;;;;;;;14.25;47.04;99908.81;4962693;28;20042;-95
2023/05/12 07:30:00;;;;;;;3.90;2.25;;;;;;;14.27;46.11;99890.38;4947200;28;20035;-94
2023/05/12 07:32:27;;;;;;;5.30;2.50;;;;;;;14.43;46.34;99896.53;4943400;28;20034;-96
2023/05/12 07:34:53;;;;;;;6.07;3.58;;;;;;;14.52;46.27;99883.19;4952408;28;20035;-94
2023/05/12 07:37:19;;;;;;;6.60;3.30;;;;;;;14.61;46.41;99878.84;4964692;28;20038;-95
2023/05/12 07:39:48;;;;;;;4.40;2.47;;;;;;;14.71;45.67;99900.44;4973020;28;20039;-96
2023/05/12 07:42:23;;;;;;;6.88;2.63;;;;;;;14.76;45.18;99875.19;4972080;28;20051;-96
2023/05/12 07:44:53;;;;;;;6.00;2.63;;;;;;;14.77;44.73;99873.28;4960758;28;20073;-96
2023/05/12 07:47:31;;;;;;;3.30;2.28;;;;;;;14.75;43.53;99874.38;4978354;28;20039;-96
2023/05/12 07:49:57;;;;;;;4.22;2.42;;;;;;;14.94;42.43;99887.22;4984342;28;20038;-96
2023/05/12 07:52:23;;;;;;;3.17;2.20;;;;;;;15.02;42.89;99885.81;4977205;28;20042;-95
2023/05/12 07:54:48;;;;;;;4.30;2.38;;;;;;;15.20;41.48;99895.94;4982746;28;20031;-95
2023/05/12 07:57:14;;;;;;;2.28;1.80;;;;;;;15.18;41.03;99867.50;4954296;28;20056;-94
2023/05/12 07:59:50;;;;;;;5.30;2.65;;;;;;;15.53;42.01;99905.09;4984656;28;20122;-96
2023/05/12 08:02:16;;;;;;;4.03;2.70;;;;;;;15.33;42.16;99895.25;4968203;28;20033;-91
2023/05/12 08:04:53;;;;;;;7.97;5.45;;;;;;;15.59;41.22;99908.56;4948598;28;20034;-90
2023/05/12 08:07:38;;;;;;;8.85;2.90;;;;;;;15.76;40.30;99919.00;4968456;28;20501;-91
2023/05/12 08:10:10;;;;;;;3.47;2.28;;;;;;;15.79;40.01;99910.25;4964468;28;20088;-92
2023/05/12 08:12:39;;;;;;;3.38;2.15;;;;;;;15.86;39.98;99888.19;4973128;28;20035;-90
2023/05/12 08:15:08;;;;;;;3.92;2.85;;;;;;;16.09;39.62;99895.50;4970057;28;20035;-90
2023/05/12 08:17:34;;;;;;;7.03;3.78;;;;;;;16.15;38.89;99899.75;4970788;28;20153;-90
2023/05/12 08:20:12;;;;;;;3.63;2.30;;;;;;;16.02;38.74;99888.78;4955081;28;20469;-91
2023/05/12 08:23:10;;;;;;;7.07;2.70;;;;;;;16.25;39.04;99911.56;4963060;28;20050;-93
2023/05/12 08:25:43;;;;;;;3.47;2.20;;;;;;;16.25;37.31;99893.38;4976198;28;20488;-89
2023/05/12 08:28:32;;;;;;;3.65;2.08;;;;;;;16.23;37.18;99875.72;4947117;28;20493;-92
2023/05/12 08:30:58;;;;;;;5.85;2.80;;;;;;;16.23;38.57;99895.59;4977101;28;20532;-93
2023/05/12 08:33:23;;;;;;;3.75;2.10;;;;;;;16.30;38.84;99904.16;4946533;28;20027;-93
2023/05/12 08:35:49;;;;;;;3.80;2.33;;;;;;;16.28;39.27;99881.13;4983703;28;20042;-94
2023/05/12 08:38:15;;;;;;;4.22;2.10;;;;;;;16.44;39.36;99895.28;4947692;28;20092;-92
2023/05/12 08:41:03;;;;;;;5.20;3.03;;;;;;;16.78;38.22;99881.41;4961389;28;20078;-93
2023/05/12 08:44:09;;;;;;;6.18;3.28;;;;;;;17.06;38.48;99904.13;4981034;28;20085;-92
2023/05/12 08:46:34;;;;;;;4.65;2.35;;;;;;;17.15;38.23;99885.97;4997103;28;20133;-94
2023/05/12 08:49:03;;;;;;;7.05;4.97;;;;;;;17.04;38.71;99890.00;4958783;28;20098;-93
2023/05/12 08:51:29;;;;;;;5.55;3.78;;;;;;;16.82;39.53;99877.03;4953077;28;20124;-92
2023/05/12 08:53:55;;;;;;;4.95;2.80;;;;;;;16.77;39.21;99869.75;4964572;28;20411;-92
2023/05/12 08:56:24;;;;;;;3.50;2.35;;;;;;;16.80;39.72;99883.84;4963695;28;20038;-94
2023/05/12 08:58:50;;;;;;;6.22;2.67;;;;;;;16.61;39.65;99890.13;4975408;28;20038;-92
2023/05/12 09:01:16;;;;;;;2.88;2.30;;;;;;;16.39;39.90;99870.91;4952560;28;20130;-93
2023/05/12 09:03:52;;;;;;;7.95;2.28;;;;;;;16.24;39.64;99872.72;4963958;28;20093;-92
2023/05/12 09:06:17;;;;;;;6.45;2.58;;;;;;;16.44;39.85;99876.28;4960170;28;20065;-89
2023/05/12 09:08:43;;;;;;;3.33;2.30;;;;;;;16.64;39.64;99875.94;4945827;28;20030;-91
2023/05/12 09:11:10;;;;;;;4.13;2.63;;;;;;;16.63;38.83;99879.75;4945244;28;20015;-91
2023/05/12 09:13:39;;;;;;;4.78;2.60;;;;;;;16.85;39.39;99889.22;4958857;28;20899;-92
2023/05/12 09:16:08;;;;;;;5.43;3.20;;;;;;;16.70;39.18;99896.50;4965042;28;20071;-92
2023/05/12 09:18:51;;;;;;;3.05;2.10;;;;;;;16.65;38.83;99876.75;4960416;28;20023;-91
2023/05/12 09:21:17;;;;;;;4.07;2.38;;;;;;;16.68;38.66;99876.16;4942176;28;20481;-92
2023/05/12 09:23:59;;;;;;;2.53;2.00;;;;;;;16.64;38.62;99880.56;4957442;28;20030;-88
2023/05/12 09:26:25;;;;;;;;;;;;;;;16.99;38.47;99898.25;4963760;28;20026;-90
2023/05/12 09:28:55;;;;;;;5.47;2.53;;;;;;;16.81;38.28;99882.75;4963516;28;19929;-90
2023/05/12 09:31:22;;;;;;;3.10;2.30;;;;;;;16.77;38.86;99904.28;4959082;28;20026;-91
2023/05/12 09:33:49;;;;;;;6.00;2.67;;;;;;;16.84;38.44;99880.25;4956517;28;20026;-92
2023/05/12 09:36:20;;;;;;;4.55;2.20;;;;;;;17.01;37.87;99887.06;4957361;28;20029;-90
2023/05/12 09:38:46;;;;;;;2.67;2.03;;;;;;;17.08;38.04;99901.06;4953337;28;20031;-91
2023/05/12 09:41:12;;;;;;;8.93;2.72;;;;;;;16.96;38.25;99883.31;4985293;28;20092;-91
2023/05/12 09:43:43;;;;;;;7.03;2.78;;;;;;;16.89;38.33;99873.94;4951058;28;20081;-91
2023/05/12 09:46:09;;;;;;;5.50;2.30;;;;;;;16.84;37.83;99882.19;4961815;28;20019;-91
2023/05/12 09:48:34;;;;;;;3.95;2.60;;;;;;;16.82;37.63;99870.78;4944817;28;20030;-91
2023/05/12 09:51:00;;;;;;;3.75;2.67;;;;;;;16.91;37.49;99877.16;4944592;28;20062;-91
2023/05/12 09:53:28;;;;;;;4.97;2.60;;;;;;;17.17;37.49;99886.50;4946067;28;20022;-90
2023/05/12 09:55:54;;;;;;;6.63;2.25;;;;;;;17.17;37.72;99891.13;4946088;28;20463;-90
2023/05/12 09:58:19;;;;;;;5.28;2.72;;;;;;;17.18;37.71;99868.25;4945364;28;20026;-90
2023/05/12 10:00:46;;;;;;;3.70;1.83;;;;;;;17.29;37.69;99872.41;4977890;28;20496;-92
2023/05/12 10:03:16;;;;;;;6.70;3.30;;;;;;;17.15;37.94;99868.84;4967333;28;20038;-92
2023/05/12 10:05:50;;;;;;;5.93;2.90;;;;;;;17.35;38.18;99884.81;4972220;28;20535;-91
2023/05/12 10:08:21;;;;;;;5.15;2.40;;;;;;;17.35;38.17;99886.75;4962630;28;20033;-91
2023/05/12 10:10:49;;;;;;;7.65;3.45;;;;;;;17.12;38.79;99866.72;4947781;28;20030;-91
2023/05/12 10:13:14;;;;;;;3.97;2.80;;;;;;;16.89;38.59;99874.75;4946509;28;20030;-90
2023/05/12 10:15:43;;;;;;;4.70;2.72;;;;;;;16.93;38.93;99881.22;4969230;28;20034;-92
2023/05/12 10:18:09;;;;;;;4.57;2.40;;;;;;;16.99;39.13;99900.16;4950273;28;20018;-92
2023/05/12 10:20:35;;;;;;;5.55;3.15;;;;;;;16.84;38.92;99874.03;4965635;28;20133;-91
2023/05/12 10:23:01;;;;;;;6.38;3.15;;;;;;;17.00;39.54;99891.72;4971190;28;20022;-90
2023/05/12 10:25:26;;;;;;;3.08;2.10;;;;;;;16.96;38.96;99875.16;4975637;28;20049;-89
2023/05/12 10:27:52;;;;;;;3.97;2.30;;;;;;;17.07;39.00;99861.38;4956639;28;20492;-92
2023/05/12 10:30:18;;;;;;;3.72;2.00;;;;;;;17.18;38.44;99881.84;4973834;28;20043;-89
2023/05/12 10:32:46;;;;;;;3.25;2.28;;;;;;;17.21;38.73;99886.72;4957944;28;20018;-91
2023/05/12 10:35:12;;;;;;;4.20;2.33;;;;;;;17.26;38.79;99870.28;4953345;28;20030;-89
2023/05/12 10:37:38;;;;;;;3.20;2.40;;;;;;;17.41;38.38;99858.31;4963747;28;20108;-94
2023/05/12 10:40:23;;;;;;;;;;;;;;;;;;;;;
2023/05/12 10:42:54;;;;;;;5.45;2.70;;;;;;;17.63;38.00;99854.06;4970760;28;20097;-93
2023/05/12 10:45:20;;;;;;;5.80;2.90;;;;;;;17.61;37.96;99865.25;4971715;28;20030;-93
2023/05/12 10:47:46;;;;;;;7.28;3.30;;;;;;;17.52;38.46;99857.00;4957620;28;20043;-95
2023/05/12 10:50:14;;;;;;;8.23;2.55;;;;;;;18.03;37.81;99870.69;4947922;28;20041;-95
2023/05/12 10:52:51;;;;;;;4.35;2.00;;;;;;;17.84;38.05;99852.53;4956379;28;20062;-91
2023/05/12 10:55:17;;;;;;;3.47;2.10;;;;;;;18.09;37.20;99861.28;4948409;28;20030;-95
2023/05/12 10:57:51;;;;;;;2.70;2.05;;;;;;;18.06;37.55;99864.63;4950673;28;20460;-93
2023/05/12 11:00:21;;;;;;;5.30;2.50;;;;;;;18.06;37.27;99853.72;4956554;28;20022;-93
2023/05/12 11:02:50;;;;;;;5.03;3.78;;;;;;;17.90;37.84;99873.13;4956112;28;20031;-95
2023/05/12 11:05:15;;;;;;;5.75;3.03;;;;;;;17.96;37.72;99847.38;4959324;28;20057;-93
2023/05/12 11:07:46;;;;;;;4.20;1.92;;;;;;;18.03;36.99;99876.94;4958750;28;20489;-92
2023/05/12 11:10:14;;;;;;;3.75;2.22;;;;;;;17.94;37.42;99844.16;4958911;28;20043;-90
2023/05/12 11:12:57;;;;;;;3.88;2.10;;;;;;;17.95;37.02;99850.41;4958071;28;20026;-93
2023/05/12 11:15:23;;;;;;;5.70;3.33;;;;;;;17.74;37.42;99847.28;4988130;28;20039;-92
2023/05/12 11:17:49;;;;;;;8.82;2.50;;;;;;;17.90;37.37;99845.88;4971891;28;20062;-90
2023/05/12 11:20:23;;;;;;;4.50;2.30;;;;;;;18.08;37.31;99854.22;4965282;28;20023;-92
2023/05/12 11:22:53;;;;;;;5.15;3.45;;;;;;;18.07;37.40;99830.81;4964078;28;20037;-95
2023/05/12 11:25:18;;;;;;;3.03;2.15;;;;;;;18.26;37.11;99836.91;4981215;28;20461;-93
2023/05/12 11:28:00;;;;;;;3.33;2.47;;;;;;;18.41;37.02;99835.75;4958398;28;20031;-91
2023/05/12 11:30:25;;;;;;;3.45;2.13;;;;;;;18.52;36.39;99820.75;4989026;28;20117;-89
2023/05/12 11:33:10;;;;;;;2.28;1.67;;;;;;;18.65;36.32;99832.69;4987868;28;20082;-91
2023/05/12 11:35:36;;;;;;;3.42;1.90;;;;;;;18.68;35.45;99818.44;4991093;28;20117;-91
2023/05/12 11:38:02;;;;;;;5.25;2.65;;;;;;;18.54;35.90;99823.97;4948124;28;20026;-92
2023/05/12 11:40:28;;;;;;;3.85;1.75;;;;;;;18.86;35.43;99829.47;4945117;28;20023;-91
2023/05/12 11:42:58;;;;;;;3.35;1.92;;;;;;;18.96;34.62;99810.13;4960027;28;20402;-91
2023/05/12 11:45:32;;;;;;;3.72;1.77;;;;;;;18.98;35.15;99814.13;4944860;28;20027;-90
2023/05/12 11:48:31;;;;;;;5.55;2.03;;;;;;;18.83;35.29;99805.56;4960897;28;20381;-91